Time;durP1;ratioP1;P1;durP2;ratioP2;P2;SDS_P1;SDS_P2;PMS_P1;PMS_P2;Temp;Humidity;BMP_temperature;BMP_pressure;BME280_temperature;BME280_humidity;BME280_pressure;Samples;Min_cycle;Max_cycle;Signal;HPM_P1;HPM_P2
2022/12/25 00:05:28;;;;;;;33.88;6.07;;;6.60;99.90;;;;;;12644217;28;20130;-85
2022/12/25 00:11:30;;;;;;;46.10;6.55;;;6.70;99.90;;;;;;12644850;28;20052;-86
2022/12/25 00:17:31;;;;;;;33.45;5.80;;;6.70;99.90;;;;;;12611831;28;20076;-85
2022/12/25 00:23:34;;;;;;;32.85;8.45;;;6.70;99.90;;;;;;12588019;28;20052;-85
2022/12/25 00:29:36;;;;;;;25.63;5.93;;;6.70;99.90;;;;;;12569837;28;20044;-85
2022/12/25 00:35:38;;;;;;;31.08;6.00;;;6.70;99.90;;;;;;12577867;28;20043;-85
2022/12/25 00:48:00;;;;;;;23.65;5.85;;;6.80;99.90;;;;;;12589238;28;20048;-85
2022/12/25 00:54:02;;;;;;;27.50;6.25;;;6.90;99.90;;;;;;12568261;28;20489;-85
2022/12/25 01:00:04;;;;;;;27.02;5.63;;;7.00;99.90;;;;;;12586059;28;20048;-85
2022/12/25 01:06:07;;;;;;;29.90;5.90;;;7.00;99.90;;;;;;12584641;28;20124;-85
2022/12/25 01:12:09;;;;;;;28.77;6.15;;;7.00;99.90;;;;;;12586221;28;20535;-85
2022/12/25 01:18:11;;;;;;;24.50;5.68;;;6.80;99.90;;;;;;12566383;28;20044;-85
2022/12/25 01:24:13;;;;;;;24.65;4.72;;;6.80;99.90;;;;;;12566122;28;20056;-85
2022/12/25 01:30:15;;;;;;;21.98;4.57;;;7.00;99.90;;;;;;12583541;28;20067;-85
2022/12/25 01:36:20;;;;;;;22.45;4.80;;;7.10;99.90;;;;;;12582918;28;20044;-85
2022/12/25 01:42:22;;;;;;;26.10;5.10;;;7.30;99.90;;;;;;12586340;28;20389;-85
2022/12/25 01:48:36;;;;;;;22.42;4.80;;;7.40;99.90;;;;;;12576995;28;20128;-85
2022/12/25 01:54:52;;;;;;;20.73;4.17;;;7.30;99.90;;;;;;12573879;28;20040;-85
2022/12/25 02:00:54;;;;;;;25.13;4.43;;;7.40;99.90;;;;;;12582157;28;20044;-85
2022/12/25 02:06:56;;;;;;;26.38;4.70;;;7.50;99.90;;;;;;12593916;28;20408;-85
2022/12/25 02:12:58;;;;;;;22.00;4.80;;;7.50;99.90;;;;;;12591897;28;20036;-85
2022/12/25 02:19:32;;;;;;;24.58;4.20;;;7.50;99.90;;;;;;12588233;28;20040;-85
2022/12/25 02:25:56;;;;;;;25.10;4.57;;;7.50;99.90;;;;;;12552480;28;20043;-85
2022/12/25 02:32:14;;;;;;;17.93;4.17;;;7.50;99.90;;;;;;12582050;28;20037;-85
2022/12/25 02:38:22;;;;;;;19.20;4.18;;;7.50;99.90;;;;;;12576732;28;20516;-85
2022/12/25 03:29:06;;;;;;;18.08;4.53;;;7.50;99.90;;;;;;12582090;28;20048;-85
2022/12/25 03:35:29;;;;;;;19.25;4.30;;;7.40;99.90;;;;;;12566000;28;20520;-85
2022/12/25 04:38:42;;;;;;;14.20;4.45;;;7.00;99.90;;;;;;12590122;28;20493;-86
2022/12/25 04:44:44;;;;;;;14.25;4.18;;;7.00;99.90;;;;;;12587184;28;20044;-86
2022/12/25 04:50:46;;;;;;;17.73;4.78;;;7.00;99.90;;;;;;12577589;28;20049;-86
2022/12/25 04:56:48;;;;;;;12.35;4.65;;;7.00;99.90;;;;;;12596405;28;20052;-85
2022/12/25 05:02:50;;;;;;;14.70;4.63;;;7.10;99.90;;;;;;12557518;28;20081;-86
2022/12/25 05:08:52;;;;;;;16.35;4.53;;;7.10;99.90;;;;;;12573156;28;20082;-85
2022/12/25 05:14:54;;;;;;;14.15;4.47;;;7.10;99.90;;;;;;12573038;28;20462;-86
2022/12/25 05:20:55;;;;;;;12.60;4.43;;;7.10;99.90;;;;;;12569296;28;20059;-86
2022/12/25 05:26:57;;;;;;;11.10;4.20;;;7.10;99.90;;;;;;12580814;28;20056;-86
2022/12/25 05:32:59;;;;;;;16.55;4.13;;;7.10;99.90;;;;;;12542214;28;20068;-86
2022/12/25 05:39:01;;;;;;;17.98;4.93;;;7.10;99.90;;;;;;12524393;28;20063;-87
2022/12/25 05:45:03;;;;;;;15.10;4.55;;;7.10;99.90;;;;;;12519091;28;20038;-86
2022/12/25 05:51:11;;;;;;;11.15;4.30;;;7.10;99.90;;;;;;12527442;28;20052;-86
2022/12/25 05:57:12;;;;;;;13.13;4.25;;;7.10;99.90;;;;;;12528160;28;20126;-86
2022/12/25 06:03:14;;;;;;;11.77;4.88;;;7.20;99.90;;;;;;12543568;28;20049;-86
2022/12/25 06:09:16;;;;;;;12.95;4.30;;;7.20;99.90;;;;;;12538998;28;20053;-86
2022/12/25 06:15:18;;;;;;;11.55;4.20;;;7.30;99.90;;;;;;12517708;28;20052;-86
2022/12/25 06:21:20;;;;;;;14.15;4.80;;;7.30;99.90;;;;;;12537872;28;20078;-86
2022/12/25 06:27:21;;;;;;;13.93;5.85;;;7.30;99.90;;;;;;12528288;28;20517;-85
2022/12/25 06:33:23;;;;;;;11.18;4.47;;;7.40;99.90;;;;;;12541118;28;20055;-85
2022/12/25 06:39:25;;;;;;;12.75;4.80;;;7.30;99.90;;;;;;12514746;28;20511;-85
2022/12/25 06:45:27;;;;;;;13.95;4.85;;;7.30;99.90;;;;;;12528707;28;20063;-85
2022/12/25 06:51:30;;;;;;;15.32;5.15;;;7.20;99.90;;;;;;12526356;28;20045;-85
2022/12/25 06:57:32;;;;;;;13.35;5.90;;;7.30;99.90;;;;;;12544473;28;20682;-86
2022/12/25 07:03:34;;;;;;;15.43;5.30;;;7.40;99.90;;;;;;12535316;28;20041;-86
2022/12/25 07:09:37;;;;;;;10.57;4.55;;;7.40;99.90;;;;;;12554660;28;20189;-85
2022/12/25 07:15:39;;;;;;;12.17;4.80;;;7.50;99.90;;;;;;12557593;28;20044;-85
2022/12/25 07:21:41;;;;;;;13.82;4.65;;;7.50;99.90;;;;;;12540279;28;20076;-85
2022/12/25 07:27:43;;;;;;;11.43;4.63;;;7.60;99.90;;;;;;12542850;28;20048;-85
2022/12/25 07:33:45;;;;;;;14.20;4.88;;;7.60;99.90;;;;;;12582885;28;20072;-85
2022/12/25 07:39:47;;;;;;;12.70;4.95;;;7.60;99.90;;;;;;12574354;28;20497;-86
2022/12/25 07:45:57;;;;;;;9.60;4.63;;;7.60;99.90;;;;;;12569351;28;20473;-86
2022/12/25 07:51:59;;;;;;;9.55;4.60;;;7.60;99.90;;;;;;12579651;28;20044;-86
2022/12/25 07:58:01;;;;;;;12.07;4.78;;;7.70;99.90;;;;;;12573002;28;20056;-86
2022/12/25 08:04:03;;;;;;;12.82;4.63;;;7.70;99.90;;;;;;12587304;28;20424;-86
2022/12/25 08:10:05;;;;;;;11.23;4.47;;;7.70;99.90;;;;;;12570499;28;20507;-86
2022/12/25 08:16:09;;;;;;;11.57;4.75;;;7.60;99.90;;;;;;12570053;28;20098;-86
2022/12/25 08:22:11;;;;;;;12.27;4.87;;;7.60;99.90;;;;;;12569723;28;20052;-86
2022/12/25 08:28:12;;;;;;;9.70;4.15;;;7.70;99.90;;;;;;12564610;28;20063;-85
2022/12/25 08:34:14;;;;;;;9.75;4.10;;;7.70;99.90;;;;;;12582773;28;20032;-86
2022/12/25 08:40:16;;;;;;;8.88;4.00;;;7.80;99.90;;;;;;12587850;28;20552;-86
2022/12/25 08:46:18;;;;;;;12.77;4.60;;;7.80;99.90;;;;;;12563953;28;20055;-85
2022/12/25 08:52:20;;;;;;;10.50;4.75;;;7.80;99.90;;;;;;12565117;28;20040;-86
2022/12/25 08:58:22;;;;;;;7.80;4.18;;;7.80;99.90;;;;;;12567891;28;20063;-86
2022/12/25 09:04:24;;;;;;;10.63;4.55;;;7.90;99.90;;;;;;12574310;28;20464;-86
2022/12/25 09:10:25;;;;;;;7.55;4.28;;;8.00;99.90;;;;;;12576773;28;20404;-86
2022/12/25 09:16:27;;;;;;;8.60;4.10;;;8.00;99.90;;;;;;12556632;28;20198;-86
2022/12/25 09:22:29;;;;;;;10.25;4.80;;;8.10;99.90;;;;;;12581712;28;20067;-85
2022/12/25 09:28:31;;;;;;;9.32;4.75;;;8.10;99.90;;;;;;12579341;28;20045;-86
2022/12/25 09:34:34;;;;;;;13.27;4.68;;;8.10;99.90;;;;;;12567879;28;20041;-85
2022/12/25 09:40:35;;;;;;;8.82;4.40;;;8.00;99.90;;;;;;12584501;28;20127;-86
2022/12/25 09:46:43;;;;;;;11.18;4.93;;;8.00;99.90;;;;;;12573898;28;20497;-85
2022/12/25 09:53:10;;;;;;;7.90;4.47;;;8.10;99.90;;;;;;12587206;28;20500;-86
2022/12/25 09:59:21;;;;;;;11.23;4.57;;;8.10;99.90;;;;;;12589094;28;20051;-85
2022/12/25 10:05:41;;;;;;;9.63;4.55;;;8.10;99.90;;;;;;12580841;28;20420;-86
2022/12/25 10:12:10;;;;;;;11.05;4.50;;;8.20;99.90;;;;;;12564981;28;20072;-86
2022/12/25 10:18:44;;;;;;;10.30;4.47;;;8.20;99.90;;;;;;12579635;28;20040;-86
2022/12/25 10:24:50;;;;;;;8.25;4.13;;;8.30;99.90;;;;;;12566198;28;20531;-86
2022/12/25 10:30:54;;;;;;;8.15;4.70;;;8.30;99.90;;;;;;12581837;28;20050;-86
2022/12/25 10:36:58;;;;;;;9.93;5.67;;;8.30;99.90;;;;;;12591406;28;20093;-86
2022/12/25 10:43:23;;;;;;;11.23;5.50;;;8.30;99.90;;;;;;12588507;28;20040;-85
2022/12/25 10:49:30;;;;;;;10.02;5.95;;;8.30;99.90;;;;;;12571736;28;20105;-86
2022/12/25 10:55:32;;;;;;;10.63;5.20;;;8.40;99.90;;;;;;12574327;28;20033;-86
2022/12/25 11:01:34;;;;;;;11.38;6.47;;;8.30;99.90;;;;;;12574637;28;20048;-85
2022/12/25 11:07:49;;;;;;;10.68;6.18;;;8.40;99.90;;;;;;12569539;28;20036;-85
2022/12/25 11:13:55;;;;;;;13.05;6.80;;;8.40;99.90;;;;;;12556089;28;20074;-86
2022/12/25 11:20:52;;;;;;;8.82;5.65;;;8.50;99.90;;;;;;12565050;28;20048;-86
2022/12/25 11:27:03;;;;;;;10.82;6.63;;;8.40;99.90;;;;;;12572172;28;20040;-86
2022/12/25 11:33:11;;;;;;;9.40;5.80;;;8.50;99.90;;;;;;12589021;28;20491;-86
2022/12/25 11:39:34;;;;;;;12.43;6.97;;;8.50;99.90;;;;;;12594939;28;20640;-86
2022/12/25 11:45:39;;;;;;;11.05;6.68;;;8.50;99.90;;;;;;12583388;28;20049;-86
2022/12/25 11:51:44;;;;;;;10.02;6.10;;;8.40;99.90;;;;;;12571123;28;20414;-86
2022/12/25 11:57:53;;;;;;;10.05;6.32;;;8.40;99.90;;;;;;12584227;28;20090;-87
2022/12/25 12:03:58;;;;;;;12.13;6.63;;;8.40;99.90;;;;;;12589638;28;20040;-88
2022/12/25 12:10:26;;;;;;;11.60;6.47;;;8.40;99.90;;;;;;12591951;28;20512;-87
2022/12/25 12:16:28;;;;;;;13.88;6.70;;;8.40;99.90;;;;;;12584521;28;20104;-87
2022/12/25 12:22:30;;;;;;;12.55;6.88;;;8.40;99.90;;;;;;12570017;28;21486;-86
2022/12/25 12:28:43;;;;;;;14.60;6.97;;;8.50;99.90;;;;;;12573760;28;20119;-87
2022/12/25 12:34:49;;;;;;;10.30;6.22;;;8.40;99.90;;;;;;12587741;28;20411;-87
2022/12/25 12:40:57;;;;;;;13.43;6.15;;;8.40;99.90;;;;;;12582573;28;20587;-86
2022/12/25 12:46:59;;;;;;;11.57;5.78;;;8.50;99.90;;;;;;12570773;28;20051;-87
2022/12/25 12:53:22;;;;;;;9.10;5.55;;;8.50;99.90;;;;;;12573794;28;20128;-87
2022/12/25 12:59:25;;;;;;;11.07;6.25;;;8.50;99.90;;;;;;12584433;28;21850;-87
2022/12/25 13:05:35;;;;;;;9.53;6.10;;;8.50;99.90;;;;;;12580444;28;20053;-87
2022/12/25 13:11:40;;;;;;;8.57;5.80;;;8.50;99.90;;;;;;12545332;28;20106;-87
2022/12/25 13:17:44;;;;;;;8.98;6.50;;;8.50;99.90;;;;;;12566647;28;20045;-87
2022/12/25 13:23:45;;;;;;;8.37;5.30;;;8.40;99.90;;;;;;12554019;28;20156;-87
2022/12/25 13:29:47;;;;;;;10.88;5.35;;;8.50;99.90;;;;;;12554394;28;20052;-87
2022/12/25 13:35:50;;;;;;;7.80;4.53;;;8.50;99.90;;;;;;12537248;28;20536;-87
2022/12/25 13:42:05;;;;;;;8.65;5.50;;;8.50;99.90;;;;;;12540379;28;20041;-87
2022/12/25 13:48:14;;;;;;;14.88;7.38;;;8.50;99.90;;;;;;12538245;28;20098;-87
2022/12/25 13:54:17;;;;;;;12.48;7.13;;;8.40;99.90;;;;;;12529969;28;20163;-87
2022/12/25 14:00:23;;;;;;;13.55;7.13;;;8.40;99.90;;;;;;12537467;28;20048;-87
2022/12/25 14:06:27;;;;;;;10.90;5.70;;;8.40;99.90;;;;;;12550707;28;20081;-87
2022/12/25 14:12:30;;;;;;;;;;;8.40;99.90;;;;;;12570632;28;20033;-87
2022/12/25 14:18:32;;;;;;;12.88;7.53;;;8.30;99.90;;;;;;12567087;28;19928;-87
2022/12/25 14:24:34;;;;;;;8.45;5.03;;;8.40;99.90;;;;;;12565262;28;20069;-87
2022/12/25 14:30:41;;;;;;;8.90;5.25;;;8.50;99.90;;;;;;12577905;28;20045;-87
2022/12/25 14:36:43;;;;;;;6.55;4.47;;;8.60;99.90;;;;;;12577099;28;20897;-86
2022/12/25 14:42:55;;;;;;;5.95;4.15;;;8.60;99.90;;;;;;12581119;28;20412;-86
2022/12/25 14:49:08;;;;;;;6.50;4.85;;;8.60;99.90;;;;;;12578075;28;20045;-87
2022/12/25 14:55:29;;;;;;;7.15;4.70;;;8.60;99.90;;;;;;12562625;28;20496;-87
2022/12/25 15:01:37;;;;;;;7.28;4.45;;;8.60;99.90;;;;;;12578647;28;20049;-87
2022/12/25 15:07:40;;;;;;;7.05;4.50;;;8.70;99.90;;;;;;12581440;28;20040;-86
2022/12/25 15:13:42;;;;;;;8.15;4.60;;;8.60;99.90;;;;;;12564187;28;20657;-86
2022/12/25 15:19:44;;;;;;;6.57;4.70;;;8.60;99.90;;;;;;12557755;28;20496;-86
2022/12/25 15:25:49;;;;;;;6.88;4.40;;;8.60;99.90;;;;;;12563156;28;20044;-87
2022/12/25 15:31:51;;;;;;;5.85;4.28;;;8.70;99.90;;;;;;12548661;28;20048;-87
2022/12/25 15:37:53;;;;;;;6.35;4.32;;;8.60;99.90;;;;;;12552769;28;20048;-86
2022/12/25 15:43:55;;;;;;;7.25;4.22;;;8.70;99.90;;;;;;12557682;28;20036;-87
2022/12/25 15:49:57;;;;;;;8.82;4.88;;;8.70;99.90;;;;;;12564639;28;20053;-86
2022/12/25 15:55:58;;;;;;;8.77;5.75;;;8.70;99.90;;;;;;12569095;28;20094;-86
2022/12/25 16:02:01;;;;;;;8.93;5.68;;;8.70;99.90;;;;;;12562254;28;21740;-86
2022/12/25 16:08:03;;;;;;;8.93;5.32;;;8.70;99.90;;;;;;12561965;28;20037;-87
2022/12/25 16:14:05;;;;;;;8.68;6.45;;;8.70;99.90;;;;;;12584920;28;20132;-86
2022/12/25 16:20:08;;;;;;;11.73;7.13;;;8.80;99.90;;;;;;12582610;28;20524;-87
2022/12/25 16:26:09;;;;;;;13.15;7.45;;;8.80;99.90;;;;;;12590598;28;20118;-86
2022/12/25 16:32:12;;;;;;;13.77;7.72;;;8.90;99.90;;;;;;12588489;28;20489;-86
2022/12/25 16:38:14;;;;;;;11.52;8.27;;;9.00;99.90;;;;;;12567637;28;20049;-87
2022/12/25 16:44:16;;;;;;;11.73;8.82;;;9.00;99.90;;;;;;12566670;28;20049;-86
2022/12/25 16:50:17;;;;;;;16.58;8.88;;;9.00;99.90;;;;;;12585932;28;20048;-87
2022/12/25 16:56:27;;;;;;;16.45;9.20;;;8.90;99.90;;;;;;12574269;28;20546;-86
2022/12/25 17:02:28;;;;;;;17.38;9.10;;;9.00;99.90;;;;;;12577751;28;20047;-87
2022/12/25 17:08:31;;;;;;;14.80;9.00;;;9.00;99.90;;;;;;12569091;28;20473;-87
2022/12/25 17:14:33;;;;;;;16.27;8.95;;;9.10;99.90;;;;;;12558205;28;20083;-87
2022/12/25 17:20:36;;;;;;;13.90;8.80;;;9.00;99.90;;;;;;12536955;28;20484;-86
2022/12/25 17:26:40;;;;;;;12.88;8.40;;;9.00;99.90;;;;;;12562201;28;20567;-86
2022/12/25 17:32:42;;;;;;;13.50;9.57;;;9.20;99.90;;;;;;12542396;28;20110;-86
2022/12/25 17:38:45;;;;;;;14.13;8.45;;;9.30;99.90;;;;;;12551649;28;20105;-87
2022/12/25 17:44:47;;;;;;;17.00;8.82;;;9.20;99.90;;;;;;12548066;28;20045;-87
2022/12/25 17:50:48;;;;;;;19.23;8.45;;;9.30;99.90;;;;;;12556613;28;20074;-87
2022/12/25 17:56:50;;;;;;;13.50;8.38;;;9.40;99.90;;;;;;12529447;28;20119;-87
2022/12/25 18:02:52;;;;;;;13.70;7.97;;;9.40;99.90;;;;;;12545257;28;20404;-87
2022/12/25 18:08:56;;;;;;;13.88;8.93;;;9.40;99.90;;;;;;12552936;28;20369;-87
2022/12/25 18:14:58;;;;;;;12.90;8.95;;;9.40;99.90;;;;;;12569107;28;20135;-87
2022/12/25 18:21:01;;;;;;;19.85;9.00;;;9.40;99.90;;;;;;12582277;28;20052;-86
2022/12/25 18:27:02;;;;;;;16.58;9.25;;;9.40;99.90;;;;;;12557997;28;20048;-87
2022/12/25 18:33:05;;;;;;;16.75;9.57;;;9.40;99.90;;;;;;12567933;28;20484;-87
2022/12/25 18:39:07;;;;;;;18.65;10.25;;;9.40;99.90;;;;;;12585728;28;20489;-87
2022/12/25 18:45:12;;;;;;;16.38;9.90;;;9.40;99.90;;;;;;12563011;28;20056;-87
2022/12/25 18:51:14;;;;;;;19.20;10.07;;;9.40;99.90;;;;;;12555399;28;20117;-87
2022/12/25 18:57:15;;;;;;;19.90;10.32;;;9.40;99.90;;;;;;12595848;28;20131;-87
2022/12/25 19:03:17;;;;;;;18.38;10.93;;;9.50;99.90;;;;;;12581672;28;20063;-87
2022/12/25 19:09:19;;;;;;;19.92;11.25;;;9.50;99.90;;;;;;12582119;28;20101;-87
2022/12/25 19:15:21;;;;;;;18.15;11.00;;;9.50;99.90;;;;;;12563702;28;20051;-87
2022/12/25 19:21:23;;;;;;;21.30;11.07;;;9.50;99.90;;;;;;12566262;28;20044;-87
2022/12/25 19:27:25;;;;;;;19.95;10.77;;;9.60;99.90;;;;;;12557304;28;20143;-87
2022/12/25 19:33:30;;;;;;;18.50;11.05;;;9.60;99.90;;;;;;12538905;28;20052;-86
2022/12/25 19:39:32;;;;;;;;;;;9.70;99.90;;;;;;12563297;28;20048;-86
2022/12/25 19:45:34;;;;;;;19.67;11.15;;;9.70;99.90;;;;;;12554330;28;20007;-87
2022/12/25 19:51:38;;;;;;;22.63;11.25;;;9.70;99.90;;;;;;12560877;28;20041;-86
2022/12/25 19:57:40;;;;;;;19.98;11.45;;;9.80;99.90;;;;;;12548897;28;20051;-87
2022/12/25 20:03:44;;;;;;;22.50;11.93;;;9.70;99.90;;;;;;12543252;28;20049;-87
2022/12/25 20:09:47;;;;;;;19.63;12.07;;;9.70;99.90;;;;;;12567916;28;20040;-86
2022/12/25 20:15:49;;;;;;;21.88;11.90;;;9.80;99.90;;;;;;12588687;28;20128;-86
2022/12/25 20:21:52;;;;;;;20.42;11.85;;;9.80;99.90;;;;;;12576528;28;20040;-86
2022/12/25 20:27:56;;;;;;;21.58;12.23;;;9.80;99.90;;;;;;12577760;28;20053;-86
2022/12/25 20:34:03;;;;;;;20.70;12.68;;;9.90;99.90;;;;;;12580519;28;20597;-86
2022/12/25 20:40:06;;;;;;;14.98;10.60;;;10.00;99.90;;;;;;12591653;28;20056;-86
2022/12/25 20:46:08;;;;;;;16.88;11.25;;;10.10;99.90;;;;;;12570263;28;20089;-87
2022/12/25 20:52:09;;;;;;;17.42;9.80;;;10.00;99.90;;;;;;12589660;28;20045;-86
2022/12/25 20:58:12;;;;;;;16.35;10.48;;;10.10;99.90;;;;;;12584975;28;20042;-87
2022/12/25 21:04:14;;;;;;;18.30;9.32;;;10.10;99.90;;;;;;12577537;28;20127;-86
2022/12/25 21:10:17;;;;;;;15.10;9.70;;;10.10;99.90;;;;;;12551175;28;20044;-86
2022/12/25 21:16:20;;;;;;;11.07;9.00;;;10.20;99.90;;;;;;12565811;28;20132;-87
2022/12/25 21:22:23;;;;;;;13.23;8.80;;;10.20;99.90;;;;;;12563319;28;20053;-87
2022/12/25 21:28:28;;;;;;;15.05;8.80;;;10.20;99.90;;;;;;12556507;28;20181;-87
2022/12/25 21:34:30;;;;;;;10.88;7.80;;;10.20;99.90;;;;;;12564950;28;20071;-87
2022/12/25 21:40:34;;;;;;;10.23;7.28;;;10.20;99.90;;;;;;12541424;28;20044;-87
2022/12/25 21:46:36;;;;;;;9.20;7.32;;;10.20;99.90;;;;;;12541575;28;20076;-87
2022/12/25 21:52:37;;;;;;;8.88;6.72;;;10.20;99.90;;;;;;12542773;28;20167;-87
2022/12/25 21:58:39;;;;;;;8.50;7.07;;;10.20;99.90;;;;;;12539416;28;21352;-86
2022/12/25 22:04:41;;;;;;;9.38;8.00;;;10.20;99.90;;;;;;12534896;28;20045;-87
2022/12/25 22:10:43;;;;;;;10.18;8.02;;;10.20;99.90;;;;;;12538099;28;20470;-87
2022/12/25 22:23:05;;;;;;;11.07;8.80;;;10.10;99.90;;;;;;12576288;28;20067;-87
2022/12/25 22:29:07;;;;;;;13.25;9.07;;;10.10;99.90;;;;;;12578076;28;20074;-87
2022/12/25 22:35:10;;;;;;;15.55;9.98;;;10.10;99.90;;;;;;12576122;28;20051;-87
2022/12/25 22:41:13;;;;;;;12.25;10.13;;;10.10;99.90;;;;;;12593491;28;20132;-87
2022/12/25 22:47:14;;;;;;;14.18;10.32;;;10.10;99.90;;;;;;12589148;28;20052;-88
2022/12/25 22:53:16;;;;;;;14.35;11.25;;;10.10;99.90;;;;;;12574982;28;20047;-87
2022/12/25 22:59:20;;;;;;;15.73;11.40;;;10.10;99.90;;;;;;12573770;28;20416;-87
2022/12/25 23:05:22;;;;;;;16.48;11.05;;;10.10;99.90;;;;;;12598688;28;20433;-87
2022/12/25 23:11:24;;;;;;;14.18;10.88;;;10.10;99.90;;;;;;12574825;28;20122;-87
2022/12/25 23:30:12;;;;;;;22.30;14.77;;;10.10;99.90;;;;;;12561074;28;20489;-87
2022/12/25 23:36:14;;;;;;;23.80;16.50;;;10.10;99.90;;;;;;12566643;28;20090;-87
2022/12/25 23:42:16;;;;;;;25.15;18.20;;;10.10;99.90;;;;;;12567428;28;20394;-88
2022/12/25 23:48:18;;;;;;;26.73;19.40;;;10.00;99.90;;;;;;12563311;28;20052;-87
2022/12/25 23:54:28;;;;;;;25.58;19.08;;;10.10;99.90;;;;;;12564470;28;20078;-87
